Time;durP1;ratioP1;P1;durP2;ratioP2;P2;SDS_P1;SDS_P2;PMS_P1;PMS_P2;Temp;Humidity;BMP_temperature;BMP_pressure;BME280_temperature;BME280_humidity;BME280_pressure;Samples;Min_cycle;Max_cycle;Signal;HPM_P1;HPM_P2
2023/09/03 00:01:44;;;;;;;5.60;5.10;;;22.70;99.90;;;;;;5036608;28;20173;-84
2023/09/03 00:04:10;;;;;;;6.00;5.40;;;22.70;99.90;;;;;;5019715;28;20284;-84
2023/09/03 00:06:36;;;;;;;5.70;5.20;;;22.70;99.90;;;;;;5020092;28;20377;-84
2023/09/03 00:09:04;;;;;;;5.30;4.90;;;22.70;99.90;;;;;;5018904;28;20188;-84
2023/09/03 00:11:30;;;;;;;4.90;4.50;;;22.70;99.90;;;;;;5016879;28;20277;-83
2023/09/03 00:13:56;;;;;;;5.20;4.80;;;22.70;99.90;;;;;;5018532;28;20246;-84
2023/09/03 00:16:21;;;;;;;5.33;4.93;;;22.70;99.90;;;;;;5019220;28;20553;-84
2023/09/03 00:18:47;;;;;;;5.20;4.80;;;22.70;99.90;;;;;;5034965;28;20287;-84
2023/09/03 00:21:13;;;;;;;5.13;4.73;;;22.70;99.90;;;;;;5018711;28;20188;-84
2023/09/03 00:23:39;;;;;;;5.10;4.70;;;22.70;99.90;;;;;;5018240;28;20205;-84
2023/09/03 00:26:04;;;;;;;5.70;5.20;;;22.70;99.90;;;;;;5018198;28;20173;-84
2023/09/03 00:28:30;;;;;;;5.27;4.87;;;22.70;99.90;;;;;;5034809;28;20190;-84
2023/09/03 00:31:01;;;;;;;5.40;4.90;;;22.70;99.90;;;;;;5018382;28;20173;-84
2023/09/03 00:33:27;;;;;;;5.03;4.63;;;22.70;99.90;;;;;;5017961;28;20238;-84
2023/09/03 00:35:53;;;;;;;5.20;4.80;;;22.60;99.90;;;;;;5034766;28;20172;-84
2023/09/03 00:38:19;;;;;;;5.47;4.97;;;22.60;99.90;;;;;;5018498;28;20474;-84
2023/09/03 00:40:45;;;;;;;5.27;4.70;;;22.60;99.90;;;;;;5015268;28;20169;-84
2023/09/03 00:43:10;;;;;;;5.07;4.57;;;22.60;99.90;;;;;;5033555;28;20587;-84
2023/09/03 00:45:36;;;;;;;5.47;4.97;;;22.60;99.90;;;;;;5017631;28;20453;-84
2023/09/03 00:48:02;;;;;;;5.03;4.63;;;22.60;99.90;;;;;;5034458;28;20432;-84
2023/09/03 00:50:29;;;;;;;4.73;4.33;;;22.60;99.90;;;;;;5016181;28;20172;-84
2023/09/03 00:52:55;;;;;;;5.03;4.63;;;22.60;99.90;;;;;;5032627;28;20196;-84
2023/09/03 00:55:22;;;;;;;4.60;4.30;;;22.60;99.90;;;;;;5015964;28;20189;-84
2023/09/03 00:57:48;;;;;;;4.97;4.57;;;22.50;99.90;;;;;;5017270;28;20182;-84
2023/09/03 01:00:16;;;;;;;4.60;4.20;;;22.50;99.90;;;;;;5032473;28;20173;-84
2023/09/03 01:02:44;;;;;;;5.50;4.67;;;22.50;99.90;;;;;;5033565;28;20173;-84
2023/09/03 01:05:10;;;;;;;5.07;4.67;;;22.50;99.90;;;;;;5016559;28;20176;-84
2023/09/03 01:07:37;;;;;;;5.37;4.83;;;22.50;99.90;;;;;;5016601;28;20165;-84
2023/09/03 01:10:03;;;;;;;5.13;4.70;;;22.50;99.90;;;;;;5035306;28;20499;-84
2023/09/03 01:12:34;;;;;;;5.03;4.63;;;22.50;99.90;;;;;;5036456;28;20177;-84
2023/09/03 01:15:13;;;;;;;4.80;4.40;;;22.50;99.90;;;;;;5036423;28;20168;-84
2023/09/03 01:18:01;;;;;;;4.60;4.20;;;22.50;99.90;;;;;;5036676;28;20169;-84
2023/09/03 01:20:36;;;;;;;5.03;4.63;;;22.50;99.90;;;;;;5020014;28;20292;-84
2023/09/03 01:23:26;;;;;;;5.07;4.67;;;22.40;99.90;;;;;;5018657;28;20203;-84
2023/09/03 01:26:10;;;;;;;5.50;5.00;;;22.50;99.90;;;;;;5036015;28;20246;-84
2023/09/03 01:28:38;;;;;;;4.47;4.17;;;22.40;99.90;;;;;;5035550;28;20208;-84
2023/09/03 01:31:08;;;;;;;4.70;4.30;;;22.40;99.90;;;;;;5036381;28;20531;-84
2023/09/03 01:33:38;;;;;;;4.97;4.57;;;22.40;99.90;;;;;;5018089;28;20180;-84
2023/09/03 01:36:06;;;;;;;4.63;4.20;;;22.40;99.90;;;;;;5035619;28;20172;-83
2023/09/03 01:38:33;;;;;;;4.80;4.40;;;22.40;99.90;;;;;;5035274;28;20368;-84
2023/09/03 01:41:01;;;;;;;5.00;4.60;;;22.40;99.90;;;;;;5017920;28;20580;-84
2023/09/03 01:43:27;;;;;;;4.80;4.40;;;22.40;99.90;;;;;;5032631;28;20176;-85
2023/09/03 01:46:22;;;;;;;4.70;4.30;;;22.40;99.90;;;;;;5018449;28;20168;-83
2023/09/03 01:49:13;;;;;;;4.37;4.07;;;22.30;99.90;;;;;;5031054;28;20184;-83
2023/09/03 01:51:57;;;;;;;4.77;4.37;;;22.30;99.90;;;;;;5017802;28;20184;-84
2023/09/03 01:54:27;;;;;;;4.37;4.03;;;22.30;99.90;;;;;;5034032;28;20429;-84
2023/09/03 01:57:10;;;;;;;4.30;3.97;;;22.30;99.90;;;;;;5015754;28;20580;-84
2023/09/03 01:59:43;;;;;;;4.30;4.00;;;22.30;99.90;;;;;;5049983;28;20215;-84
2023/09/03 02:02:10;;;;;;;5.00;4.50;;;22.30;99.90;;;;;;5034452;28;20503;-84
2023/09/03 02:04:36;;;;;;;4.80;4.27;;;22.30;99.90;;;;;;5015357;28;20205;-83
2023/09/03 02:07:04;;;;;;;4.43;4.13;;;22.30;99.90;;;;;;5016739;28;20211;-83
2023/09/03 02:09:30;;;;;;;4.70;4.30;;;22.30;99.90;;;;;;5033650;28;20183;-84
2023/09/03 02:11:57;;;;;;;4.53;4.13;;;22.30;99.90;;;;;;5035027;28;20203;-84
2023/09/03 02:14:23;;;;;;;5.03;4.63;;;22.30;99.90;;;;;;5020796;28;20195;-82
2023/09/03 02:16:50;;;;;;;4.33;4.00;;;22.30;99.90;;;;;;5039029;28;20592;-84
2023/09/03 02:19:16;;;;;;;4.93;4.53;;;22.30;99.90;;;;;;5016580;28;20246;-84
2023/09/03 02:21:41;;;;;;;5.13;4.30;;;22.20;99.90;;;;;;5015963;28;20267;-83
2023/09/03 02:24:07;;;;;;;4.57;4.27;;;22.30;99.90;;;;;;5033611;28;20250;-83
2023/09/03 02:26:40;;;;;;;4.83;4.37;;;22.20;99.90;;;;;;5016701;28;20325;-83
2023/09/03 02:29:06;;;;;;;4.63;4.27;;;22.20;99.90;;;;;;5017014;28;20392;-83
2023/09/03 02:31:32;;;;;;;4.33;4.03;;;22.30;99.90;;;;;;5017807;28;20183;-84
2023/09/03 02:33:58;;;;;;;4.97;4.30;;;22.20;99.90;;;;;;5016120;28;20191;-83
2023/09/03 02:36:23;;;;;;;4.50;4.10;;;22.20;99.90;;;;;;5016952;28;20295;-83
2023/09/03 02:39:00;;;;;;;4.20;3.90;;;22.20;99.90;;;;;;5016206;28;20208;-83
2023/09/03 02:41:26;;;;;;;4.20;3.90;;;22.20;99.90;;;;;;5017096;28;20554;-83
2023/09/03 02:43:52;;;;;;;4.50;4.10;;;22.20;99.90;;;;;;5016627;28;20176;-83
2023/09/03 02:46:18;;;;;;;4.40;4.00;;;22.20;99.90;;;;;;5035169;28;20164;-84
2023/09/03 02:48:43;;;;;;;4.30;3.90;;;22.20;99.90;;;;;;5017773;28;20184;-84
2023/09/03 02:51:09;;;;;;;4.50;4.10;;;22.20;99.90;;;;;;5016780;28;20177;-84
2023/09/03 02:53:35;;;;;;;4.57;4.17;;;22.10;99.90;;;;;;5017636;28;20216;-84
2023/09/03 02:56:00;;;;;;;4.10;3.80;;;22.10;99.90;;;;;;5030105;28;20181;-83
2023/09/03 02:58:26;;;;;;;4.63;4.23;;;22.10;99.90;;;;;;5033352;28;20212;-83
2023/09/03 03:00:52;;;;;;;3.97;3.67;;;22.10;99.90;;;;;;5016529;28;20225;-84
2023/09/03 03:03:18;;;;;;;4.23;3.80;;;22.10;99.90;;;;;;5017879;28;20180;-84
2023/09/03 03:05:43;;;;;;;4.57;4.17;;;22.10;99.90;;;;;;5017495;28;20176;-84
2023/09/03 03:08:10;;;;;;;4.10;3.80;;;22.10;99.90;;;;;;5017099;28;20169;-84
2023/09/03 03:10:36;;;;;;;4.40;4.00;;;22.10;99.90;;;;;;5035522;28;20169;-84
2023/09/03 03:13:01;;;;;;;4.33;3.97;;;22.10;99.90;;;;;;5017252;28;20204;-84
2023/09/03 03:15:28;;;;;;;4.50;4.10;;;22.10;99.90;;;;;;5033910;28;20171;-84
2023/09/03 03:17:54;;;;;;;4.10;3.80;;;22.10;99.90;;;;;;5033882;28;20245;-84
2023/09/03 03:20:22;;;;;;;3.90;3.60;;;22.10;99.90;;;;;;5019766;28;20183;-84
2023/09/03 03:22:47;;;;;;;3.87;3.57;;;22.00;99.90;;;;;;5020632;28;20181;-84
2023/09/03 03:25:13;;;;;;;4.33;3.93;;;22.00;99.90;;;;;;5037880;28;20219;-84
2023/09/03 03:27:39;;;;;;;4.17;3.77;;;22.10;99.90;;;;;;5018696;28;20192;-84
2023/09/03 03:30:05;;;;;;;3.90;3.60;;;22.00;99.90;;;;;;5017836;28;20450;-84
2023/09/03 03:32:31;;;;;;;4.10;3.70;;;22.00;99.90;;;;;;5021521;28;20187;-84
2023/09/03 03:34:57;;;;;;;3.90;3.60;;;22.00;99.90;;;;;;5021653;28;20176;-84
2023/09/03 03:37:22;;;;;;;3.90;3.60;;;22.00;99.90;;;;;;5021754;28;20278;-84
2023/09/03 03:39:50;;;;;;;4.10;3.80;;;22.10;99.90;;;;;;5020667;28;20212;-84
2023/09/03 03:42:16;;;;;;;4.47;4.07;;;22.00;99.90;;;;;;5021378;28;20173;-84
2023/09/03 03:44:42;;;;;;;3.80;3.50;;;22.00;99.90;;;;;;5021590;28;20411;-84
2023/09/03 03:47:08;;;;;;;3.77;3.47;;;22.00;99.90;;;;;;5020818;28;20177;-84
2023/09/03 03:49:34;;;;;;;4.10;3.80;;;22.00;99.90;;;;;;5020050;28;20188;-84
2023/09/03 03:52:00;;;;;;;4.10;3.80;;;22.00;99.90;;;;;;5021640;28;20299;-84
2023/09/03 03:54:25;;;;;;;4.00;3.70;;;22.00;99.90;;;;;;5020199;28;20513;-84
2023/09/03 03:56:51;;;;;;;4.00;3.70;;;22.00;99.90;;;;;;5019244;28;20177;-84
2023/09/03 03:59:17;;;;;;;4.10;3.80;;;21.90;99.90;;;;;;5018668;28;20602;-84
2023/09/03 04:01:44;;;;;;;3.87;3.57;;;22.00;99.90;;;;;;5019733;28;20177;-84
2023/09/03 04:04:10;;;;;;;3.90;3.60;;;22.00;99.90;;;;;;5020397;28;20180;-84
2023/09/03 04:06:36;;;;;;;4.00;3.60;;;21.90;99.90;;;;;;5018979;28;20463;-84
2023/09/03 04:09:02;;;;;;;4.20;3.80;;;22.00;99.90;;;;;;5019313;28;20177;-84
2023/09/03 04:11:28;;;;;;;4.00;3.70;;;21.90;99.90;;;;;;5019717;28;20177;-84
2023/09/03 04:13:55;;;;;;;4.20;3.80;;;22.00;99.90;;;;;;5037575;28;20530;-84
2023/09/03 04:16:22;;;;;;;3.90;3.50;;;21.90;99.90;;;;;;5037253;28;20610;-84
2023/09/03 04:18:51;;;;;;;4.17;3.87;;;21.90;99.90;;;;;;5035945;28;20204;-84
2023/09/03 04:21:17;;;;;;;3.80;3.50;;;21.90;99.90;;;;;;5019171;28;20230;-84
2023/09/03 04:23:42;;;;;;;3.57;3.27;;;21.90;99.90;;;;;;5020236;28;20177;-84
2023/09/03 04:26:09;;;;;;;3.80;3.50;;;21.90;99.90;;;;;;5018244;28;20264;-84
2023/09/03 04:28:35;;;;;;;4.00;3.70;;;21.90;99.90;;;;;;5017968;28;20443;-84
2023/09/03 04:31:04;;;;;;;4.20;3.90;;;21.90;99.90;;;;;;5015709;28;20235;-84
2023/09/03 04:33:30;;;;;;;3.90;3.60;;;21.90;99.90;;;;;;5033690;28;20187;-84
2023/09/03 04:36:02;;;;;;;4.20;3.90;;;21.90;99.90;;;;;;5017444;28;20177;-84
2023/09/03 04:38:28;;;;;;;3.90;3.60;;;21.90;99.90;;;;;;5016929;28;20236;-84
2023/09/03 04:40:54;;;;;;;3.87;3.57;;;21.90;99.90;;;;;;5034677;28;20223;-84
2023/09/03 04:43:20;;;;;;;4.00;3.70;;;21.90;99.90;;;;;;5018402;28;20180;-84
2023/09/03 04:45:47;;;;;;;3.90;3.60;;;21.90;99.90;;;;;;5018340;28;20177;-84
2023/09/03 04:48:14;;;;;;;3.90;3.60;;;21.90;99.90;;;;;;5016648;28;20177;-84
2023/09/03 04:50:39;;;;;;;3.77;3.47;;;21.90;99.90;;;;;;5033311;28;20208;-84
2023/09/03 04:53:06;;;;;;;3.93;3.63;;;21.80;99.90;;;;;;5032762;28;20204;-84
2023/09/03 04:55:33;;;;;;;4.30;3.90;;;21.80;99.90;;;;;;5015624;28;20203;-84
2023/09/03 04:57:59;;;;;;;3.87;3.50;;;21.90;99.90;;;;;;5015735;28;20276;-84
2023/09/03 05:00:25;;;;;;;3.40;3.20;;;21.80;99.90;;;;;;5014354;28;20173;-84
2023/09/03 05:02:51;;;;;;;3.60;3.30;;;21.90;99.90;;;;;;5017215;28;20184;-84
2023/09/03 05:05:18;;;;;;;3.90;3.60;;;21.80;99.90;;;;;;5017160;28;20551;-84
2023/09/03 05:07:44;;;;;;;3.77;3.47;;;21.80;99.90;;;;;;5035133;28;20197;-84
2023/09/03 05:10:10;;;;;;;4.23;3.93;;;21.80;99.90;;;;;;5035086;28;20472;-84
2023/09/03 05:12:40;;;;;;;3.63;3.33;;;21.80;99.90;;;;;;5020781;28;20216;-84
2023/09/03 05:15:08;;;;;;;3.57;3.27;;;21.80;99.90;;;;;;5018681;28;20449;-84
2023/09/03 05:17:33;;;;;;;3.73;3.43;;;21.80;99.90;;;;;;5035810;28;20180;-84
2023/09/03 05:19:59;;;;;;;4.43;3.50;;;21.80;99.90;;;;;;5036399;28;20211;-84
2023/09/03 05:22:25;;;;;;;3.60;3.33;;;21.80;99.90;;;;;;5036341;28;20272;-84
2023/09/03 05:24:51;;;;;;;3.90;3.60;;;21.80;99.90;;;;;;5044606;28;20176;-84
2023/09/03 05:27:16;;;;;;;3.40;3.10;;;21.80;99.90;;;;;;5019639;28;20551;-84
2023/09/03 05:29:42;;;;;;;3.80;3.50;;;21.80;99.90;;;;;;5017446;28;20237;-84
2023/09/03 05:32:08;;;;;;;3.57;3.30;;;21.80;99.90;;;;;;5035201;28;20200;-84
2023/09/03 05:34:34;;;;;;;3.50;3.20;;;21.80;99.90;;;;;;5034927;28;20184;-84
2023/09/03 05:37:00;;;;;;;3.57;3.27;;;21.80;99.90;;;;;;5018318;28;20577;-84
2023/09/03 05:39:26;;;;;;;3.27;3.07;;;21.80;99.90;;;;;;5033938;28;20224;-84
2023/09/03 05:41:52;;;;;;;3.57;3.27;;;21.80;99.90;;;;;;5016128;28;20447;-84
2023/09/03 05:44:18;;;;;;;3.60;3.30;;;21.80;99.90;;;;;;5033387;28;20238;-84
2023/09/03 05:46:44;;;;;;;3.60;3.30;;;21.80;99.90;;;;;;5015832;28;20191;-84
2023/09/03 05:49:10;;;;;;;3.83;3.40;;;21.80;99.80;;;;;;5014957;28;20470;-84
2023/09/03 05:51:36;;;;;;;3.60;3.30;;;21.80;99.90;;;;;;5031204;28;20177;-84
2023/09/03 05:54:03;;;;;;;3.60;3.30;;;21.80;99.90;;;;;;5031217;28;20226;-84
2023/09/03 05:56:28;;;;;;;3.30;3.10;;;21.80;99.80;;;;;;5032474;28;20180;-84
2023/09/03 05:58:54;;;;;;;3.47;3.17;;;21.80;99.80;;;;;;5015824;28;20215;-84
2023/09/03 06:01:20;;;;;;;3.27;3.07;;;21.80;99.70;;;;;;5031925;28;20306;-84
2023/09/03 06:03:46;;;;;;;3.60;3.30;;;21.90;99.70;;;;;;5033809;28;20169;-84
2023/09/03 06:06:11;;;;;;;3.60;3.30;;;21.90;99.70;;;;;;5014817;28;20173;-84
2023/09/03 06:08:38;;;;;;;3.77;3.47;;;21.90;99.60;;;;;;5057989;28;20195;-84
2023/09/03 06:11:05;;;;;;;2.90;2.70;;;21.90;99.70;;;;;;5053691;28;20175;-84
2023/09/03 06:13:33;;;;;;;3.30;3.10;;;21.80;99.60;;;;;;5053312;28;20238;-84
2023/09/03 06:15:59;;;;;;;3.43;3.13;;;21.90;99.60;;;;;;5053806;28;20176;-84
2023/09/03 06:18:25;;;;;;;3.40;3.10;;;21.90;99.60;;;;;;5071280;28;20254;-84
2023/09/03 06:20:52;;;;;;;3.40;3.10;;;21.90;99.50;;;;;;5071008;28;20177;-84
2023/09/03 06:23:19;;;;;;;3.17;2.97;;;21.90;99.50;;;;;;5055071;28;20369;-84
2023/09/03 06:25:48;;;;;;;3.27;3.07;;;21.90;99.40;;;;;;5055127;28;20199;-84
2023/09/03 06:28:14;;;;;;;3.70;3.40;;;21.90;99.50;;;;;;5057173;28;20240;-84
2023/09/03 06:30:41;;;;;;;3.63;3.33;;;21.90;99.40;;;;;;5056932;28;20184;-84
2023/09/03 06:33:07;;;;;;;3.47;3.17;;;21.90;99.40;;;;;;5054820;28;20205;-84
2023/09/03 06:35:32;;;;;;;3.50;3.20;;;21.90;99.40;;;;;;5073266;28;20167;-84
2023/09/03 06:37:59;;;;;;;3.27;3.07;;;21.90;99.40;;;;;;5056455;28;20179;-84
2023/09/03 06:40:25;;;;;;;3.40;3.10;;;21.90;99.40;;;;;;5053378;28;20302;-84
2023/09/03 06:42:52;;;;;;;3.30;3.00;;;21.90;99.40;;;;;;5069892;28;20168;-84
2023/09/03 06:45:18;;;;;;;3.67;3.33;;;21.90;99.30;;;;;;5051419;28;20172;-84
2023/09/03 06:47:45;;;;;;;3.30;2.93;;;21.80;99.40;;;;;;5053524;28;20179;-84
2023/09/03 06:50:11;;;;;;;3.27;2.97;;;21.80;99.40;;;;;;5053664;28;20544;-84
2023/09/03 06:52:38;;;;;;;3.20;2.90;;;21.80;99.50;;;;;;5054144;28;20175;-84
2023/09/03 06:55:04;;;;;;;3.23;2.93;;;21.80;99.30;;;;;;5054106;28;20249;-84
2023/09/03 06:57:31;;;;;;;3.10;2.90;;;21.70;99.50;;;;;;5055177;28;20217;-84
2023/09/03 06:59:57;;;;;;;3.27;3.00;;;21.70;99.40;;;;;;5071750;28;20211;-84
2023/09/03 07:02:23;;;;;;;3.63;3.33;;;21.70;99.50;;;;;;5073090;28;20212;-84
2023/09/03 07:04:49;;;;;;;3.73;3.43;;;21.60;99.50;;;;;;5054695;28;20281;-84
2023/09/03 07:07:15;;;;;;;3.53;3.23;;;21.60;99.60;;;;;;5053001;28;20202;-84
2023/09/03 07:09:41;;;;;;;3.13;2.93;;;21.60;99.70;;;;;;5052140;28;20190;-84
2023/09/03 07:12:07;;;;;;;3.50;3.20;;;21.60;99.70;;;;;;5052141;28;20362;-84
2023/09/03 07:14:33;;;;;;;3.50;3.20;;;21.60;99.70;;;;;;5071227;28;20186;-84
2023/09/03 07:17:00;;;;;;;3.40;3.10;;;21.60;99.70;;;;;;5053362;28;20188;-84
2023/09/03 07:19:29;;;;;;;3.50;3.20;;;21.60;99.70;;;;;;5052623;28;20502;-84
2023/09/03 07:21:56;;;;;;;3.90;3.60;;;21.60;99.70;;;;;;5053593;28;20172;-84
2023/09/03 07:24:22;;;;;;;3.30;3.10;;;21.60;99.70;;;;;;5036638;28;20590;-84
2023/09/03 07:26:48;;;;;;;3.10;2.90;;;21.60;99.80;;;;;;5052965;28;20186;-84
2023/09/03 07:29:14;;;;;;;3.40;3.10;;;21.60;99.70;;;;;;5052807;28;20183;-84
2023/09/03 07:31:43;;;;;;;3.37;3.17;;;21.60;99.70;;;;;;5052471;28;20274;-84
2023/09/03 07:34:10;;;;;;;3.20;3.00;;;21.60;99.60;;;;;;5069168;28;20203;-84
2023/09/03 07:36:37;;;;;;;3.20;3.00;;;21.60;99.70;;;;;;5052766;28;20186;-84
2023/09/03 07:39:06;;;;;;;3.43;3.13;;;21.60;99.60;;;;;;5052044;28;20207;-84
2023/09/03 07:41:32;;;;;;;3.13;2.93;;;21.60;99.70;;;;;;5068590;28;20546;-84
2023/09/03 07:43:59;;;;;;;3.23;2.93;;;21.60;99.60;;;;;;5070004;28;20178;-85
2023/09/03 07:46:26;;;;;;;3.70;3.40;;;21.60;99.60;;;;;;5069992;28;20256;-84
2023/09/03 07:48:51;;;;;;;3.17;2.93;;;21.60;99.60;;;;;;5053469;28;20202;-84
2023/09/03 07:51:19;;;;;;;3.60;3.30;;;21.60;99.60;;;;;;5053425;28;20175;-84
2023/09/03 07:53:47;;;;;;;3.30;3.03;;;21.70;99.50;;;;;;5053069;28;20175;-84
2023/09/03 07:56:13;;;;;;;3.30;3.00;;;21.70;99.50;;;;;;5052551;28;20211;-84
2023/09/03 07:58:41;;;;;;;3.50;2.97;;;21.70;99.40;;;;;;5052341;28;20207;-84
2023/09/03 08:01:10;;;;;;;3.57;3.27;;;21.80;99.50;;;;;;5053311;28;20183;-84
2023/09/03 08:03:35;;;;;;;3.30;3.00;;;21.80;99.40;;;;;;5053082;28;20443;-84
2023/09/03 08:06:03;;;;;;;3.60;3.30;;;21.80;99.50;;;;;;5073478;28;20202;-84
2023/09/03 08:08:29;;;;;;;3.30;3.00;;;21.80;99.40;;;;;;5055491;28;20175;-84
2023/09/03 08:10:55;;;;;;;3.40;3.10;;;21.80;99.30;;;;;;5055695;28;20182;-84
2023/09/03 08:13:21;;;;;;;3.47;3.17;;;22.00;99.10;;;;;;5052555;28;20546;-84
2023/09/03 08:15:57;;;;;;;3.90;3.60;;;22.10;98.70;;;;;;5038534;28;20184;-84
2023/09/03 08:18:27;;;;;;;3.23;2.93;;;22.20;98.50;;;;;;5038138;28;20565;-84
2023/09/03 08:20:53;;;;;;;3.47;3.13;;;22.20;98.40;;;;;;5036164;28;20180;-84
2023/09/03 08:23:19;;;;;;;3.43;3.20;;;22.20;98.40;;;;;;5054455;28;20226;-84
2023/09/03 08:25:46;;;;;;;3.53;3.23;;;22.20;98.30;;;;;;5036734;28;20566;-84
2023/09/03 08:28:12;;;;;;;3.50;3.20;;;22.20;98.20;;;;;;5041841;28;20172;-84
2023/09/03 08:30:38;;;;;;;3.60;3.30;;;22.30;98.10;;;;;;5039472;28;20463;-84
2023/09/03 08:33:06;;;;;;;3.33;3.13;;;22.30;98.10;;;;;;5054627;28;20176;-84
2023/09/03 08:35:32;;;;;;;3.13;2.93;;;22.40;98.00;;;;;;5037371;28;20230;-84
2023/09/03 08:37:57;;;;;;;3.10;2.90;;;22.50;97.70;;;;;;5035774;28;20207;-84
2023/09/03 08:40:24;;;;;;;2.93;2.73;;;22.90;97.00;;;;;;5035983;28;20226;-84
2023/09/03 08:42:58;;;;;;;3.50;3.20;;;23.30;96.30;;;;;;5036261;28;20183;-84
2023/09/03 08:45:43;;;;;;;3.23;3.03;;;23.60;95.30;;;;;;5054363;28;20179;-84
2023/09/03 08:48:10;;;;;;;3.43;3.10;;;24.00;94.20;;;;;;5036964;28;20241;-83
2023/09/03 08:50:36;;;;;;;3.53;3.23;;;24.30;93.30;;;;;;5035481;28;20172;-84
2023/09/03 08:53:03;;;;;;;3.30;3.10;;;24.50;92.70;;;;;;5034765;28;20455;-84
2023/09/03 08:55:32;;;;;;;3.45;3.15;;;24.60;92.20;;;;;;5036725;28;20192;-84
2023/09/03 08:57:59;;;;;;;3.13;2.93;;;24.70;91.90;;;;;;5052197;28;20521;-84
2023/09/03 09:00:34;;;;;;;3.70;3.40;;;24.80;91.70;;;;;;5068068;28;20224;-84
2023/09/03 09:03:01;;;;;;;3.80;3.50;;;24.80;91.50;;;;;;5035648;28;20181;-84
2023/09/03 09:05:28;;;;;;;3.35;3.13;;;24.90;91.20;;;;;;5052399;28;20165;-84
2023/09/03 09:07:54;;;;;;;3.70;3.40;;;24.90;91.00;;;;;;5035774;28;20230;-84
2023/09/03 09:10:28;;;;;;;3.35;3.15;;;25.10;90.80;;;;;;5036260;28;20191;-84
2023/09/03 09:13:05;;;;;;;3.45;3.15;;;25.30;90.20;;;;;;5035826;28;20183;-84
2023/09/03 09:16:02;;;;;;;3.70;3.40;;;25.40;88.90;;;;;;5037078;28;20180;-84
2023/09/03 09:18:28;;;;;;;3.55;3.25;;;25.60;87.90;;;;;;5049505;28;20204;-84
2023/09/03 09:20:59;;;;;;;3.97;3.50;;;25.80;86.50;;;;;;5067997;28;20183;-84
2023/09/03 09:23:30;;;;;;;3.15;2.95;;;25.90;85.50;;;;;;5034784;28;20493;-84
2023/09/03 09:25:58;;;;;;;3.53;3.22;;;26.00;85.00;;;;;;5041030;28;20199;-84
2023/09/03 09:28:25;;;;;;;3.92;3.63;;;26.00;85.10;;;;;;5035882;28;20245;-84
2023/09/03 09:30:58;;;;;;;4.00;3.63;;;26.10;84.40;;;;;;5068519;28;20176;-84
2023/09/03 09:33:26;;;;;;;3.28;3.08;;;26.20;84.20;;;;;;5051577;28;20219;-84
2023/09/03 09:35:53;;;;;;;3.83;3.53;;;26.20;84.00;;;;;;5050985;28;20168;-84
2023/09/03 09:38:19;;;;;;;4.20;3.80;;;26.30;83.50;;;;;;5067213;28;20183;-84
2023/09/03 09:40:45;;;;;;;4.35;3.75;;;26.30;83.30;;;;;;5068144;28;20168;-84
2023/09/03 09:43:11;;;;;;;3.95;3.60;;;26.40;82.50;;;;;;5032782;28;20190;-84
2023/09/03 09:45:56;;;;;;;4.30;3.80;;;26.40;82.60;;;;;;5034446;28;20442;-84
2023/09/03 09:48:21;;;;;;;4.10;3.78;;;26.30;83.10;;;;;;5050200;28;20180;-84
2023/09/03 09:50:49;;;;;;;4.20;3.80;;;26.20;84.20;;;;;;5032616;28;20173;-84
2023/09/03 09:53:26;;;;;;;3.97;3.67;;;26.20;83.90;;;;;;5048974;28;20178;-85
2023/09/03 09:56:11;;;;;;;4.15;3.75;;;26.10;84.10;;;;;;5032571;28;20184;-84
2023/09/03 09:58:41;;;;;;;4.07;3.78;;;26.10;84.50;;;;;;5049333;28;20196;-84
2023/09/03 10:01:08;;;;;;;3.75;3.28;;;26.00;85.00;;;;;;5048002;28;20175;-84
2023/09/03 10:03:49;;;;;;;4.03;3.72;;;26.00;85.30;;;;;;5033086;28;20173;-84
2023/09/03 10:06:20;;;;;;;5.70;4.03;;;25.80;86.00;;;;;;5066515;28;20483;-84
2023/09/03 10:08:54;;;;;;;3.83;3.53;;;25.80;86.70;;;;;;5032749;28;20172;-84
2023/09/03 10:11:23;;;;;;;4.15;3.85;;;25.60;87.70;;;;;;5033349;28;20210;-84
2023/09/03 10:13:50;;;;;;;4.57;4.18;;;25.70;87.80;;;;;;5049836;28;20180;-84
2023/09/03 10:16:19;;;;;;;4.47;4.07;;;25.70;87.80;;;;;;5068062;28;20566;-85
2023/09/03 10:18:47;;;;;;;4.68;4.03;;;25.60;88.10;;;;;;5050046;28;20216;-84
2023/09/03 10:21:20;;;;;;;3.97;3.67;;;25.60;88.90;;;;;;5032211;28;20177;-84
2023/09/03 10:23:50;;;;;;;4.03;3.72;;;25.60;89.30;;;;;;5048711;28;20267;-84
2023/09/03 10:26:26;;;;;;;4.97;4.22;;;25.50;90.00;;;;;;5047856;28;20160;-84
2023/09/03 10:28:59;;;;;;;4.22;3.83;;;25.50;90.00;;;;;;5048603;28;20458;-83
2023/09/03 10:31:26;;;;;;;4.63;4.22;;;25.50;90.00;;;;;;5032592;28;20366;-84
2023/09/03 10:33:53;;;;;;;4.60;3.95;;;25.40;90.20;;;;;;5049014;28;20417;-84
2023/09/03 10:36:22;;;;;;;4.32;3.95;;;25.40;90.50;;;;;;5031881;28;20168;-85
2023/09/03 10:38:58;;;;;;;4.80;3.88;;;25.30;90.80;;;;;;5047902;28;20215;-84
2023/09/03 10:41:25;;;;;;;4.25;3.90;;;25.30;90.80;;;;;;5030086;28;20168;-84
2023/09/03 10:43:53;;;;;;;4.00;3.70;;;25.30;90.80;;;;;;5028738;28;20211;-85
2023/09/03 10:46:25;;;;;;;4.20;3.80;;;25.10;91.30;;;;;;5048491;28;20164;-84
2023/09/03 10:48:53;;;;;;;4.25;3.90;;;25.10;91.40;;;;;;5049443;28;20554;-85
2023/09/03 10:51:33;;;;;;;4.15;3.85;;;25.10;91.60;;;;;;5031913;28;20442;-85
2023/09/03 10:54:15;;;;;;;4.80;4.30;;;25.20;91.70;;;;;;5031526;28;20286;-84
2023/09/03 10:57:19;;;;;;;4.32;4.00;;;25.20;91.50;;;;;;5063328;28;20267;-85
2023/09/03 11:00:03;;;;;;;6.13;4.10;;;25.20;91.40;;;;;;5005692;28;20213;-84
2023/09/03 11:02:30;;;;;;;4.18;3.78;;;25.20;91.50;;;;;;4990165;28;20429;-83
2023/09/03 11:05:15;;;;;;;4.47;3.92;;;25.20;91.70;;;;;;5015566;28;20187;-84
2023/09/03 11:07:42;;;;;;;4.07;3.77;;;25.30;91.60;;;;;;5032053;28;20168;-84
2023/09/03 11:10:20;;;;;;;4.47;4.07;;;25.30;91.80;;;;;;5045858;28;20352;-84
2023/09/03 11:12:47;;;;;;;4.57;4.00;;;25.30;91.90;;;;;;5064288;28;20207;-84
2023/09/03 11:15:14;;;;;;;4.30;3.90;;;25.20;92.00;;;;;;5049197;28;20206;-84
2023/09/03 11:17:55;;;;;;;5.03;4.00;;;25.20;92.10;;;;;;5030348;28;20204;-84
2023/09/03 11:20:31;;;;;;;4.60;4.20;;;25.20;92.10;;;;;;5029593;28;20231;-84
2023/09/03 11:23:02;;;;;;;4.63;4.13;;;25.20;92.20;;;;;;5047665;28;20172;-84
2023/09/03 11:25:35;;;;;;;4.00;3.70;;;25.20;92.50;;;;;;5030314;28;20180;-84
2023/09/03 11:28:07;;;;;;;4.03;3.70;;;25.20;92.50;;;;;;5045551;28;20168;-84
2023/09/03 11:30:34;;;;;;;3.77;3.47;;;25.10;92.60;;;;;;5047764;28;20176;-84
2023/09/03 11:33:00;;;;;;;3.90;3.60;;;25.10;92.70;;;;;;5028370;28;20275;-84
2023/09/03 11:35:37;;;;;;;4.23;3.90;;;25.10;93.00;;;;;;5030066;28;20251;-84
2023/09/03 11:38:03;;;;;;;4.60;3.70;;;25.10;93.00;;;;;;5048291;28;20199;-84
2023/09/03 11:40:30;;;;;;;4.33;3.93;;;25.10;93.10;;;;;;5031959;28;20208;-84
2023/09/03 11:42:57;;;;;;;3.70;3.40;;;25.10;93.20;;;;;;5031573;28;20175;-84
2023/09/03 11:45:22;;;;;;;3.90;3.50;;;25.10;93.30;;;;;;5033378;28;20395;-84
2023/09/03 11:47:51;;;;;;;4.20;3.80;;;25.10;93.30;;;;;;5051753;28;20176;-84
2023/09/03 11:50:18;;;;;;;4.37;3.90;;;25.10;93.40;;;;;;5033423;28;20629;-84
2023/09/03 11:53:04;;;;;;;4.20;3.80;;;25.10;93.50;;;;;;5032422;28;20254;-85
2023/09/03 11:55:33;;;;;;;3.93;3.63;;;25.10;93.60;;;;;;5030415;28;20192;-84
2023/09/03 11:58:02;;;;;;;3.90;3.60;;;25.10;93.70;;;;;;5047298;28;20263;-84
2023/09/03 12:00:29;;;;;;;4.13;3.73;;;25.10;93.70;;;;;;5048681;28;20204;-84
2023/09/03 12:02:56;;;;;;;4.00;3.60;;;25.10;93.70;;;;;;5049200;28;20568;-84
2023/09/03 12:05:22;;;;;;;4.20;3.80;;;25.10;93.90;;;;;;5045989;28;20168;-84
2023/09/03 12:07:48;;;;;;;5.17;3.67;;;25.10;93.90;;;;;;5025497;28;20264;-84
2023/09/03 12:10:22;;;;;;;4.13;3.70;;;25.00;93.90;;;;;;5028343;28;20283;-84
2023/09/03 12:12:48;;;;;;;4.03;3.63;;;25.00;94.00;;;;;;5028959;28;20453;-84
2023/09/03 12:15:22;;;;;;;3.70;3.40;;;25.00;94.00;;;;;;5046609;28;20175;-84
2023/09/03 12:17:49;;;;;;;4.03;3.63;;;25.00;94.00;;;;;;5029968;28;20282;-84
2023/09/03 12:20:35;;;;;;;3.93;3.53;;;25.00;94.10;;;;;;5046903;28;20295;-84
2023/09/03 12:23:20;;;;;;;3.87;3.50;;;25.00;94.20;;;;;;5030717;28;20323;-84
2023/09/03 12:25:46;;;;;;;4.00;3.60;;;25.00;94.30;;;;;;5032528;28;20179;-84
2023/09/03 12:28:12;;;;;;;3.77;3.47;;;25.00;94.40;;;;;;5041843;28;20176;-84
2023/09/03 12:30:57;;;;;;;4.17;3.50;;;25.00;94.40;;;;;;5066332;28;20208;-84
2023/09/03 12:33:42;;;;;;;4.27;3.10;;;25.00;94.50;;;;;;5030141;28;20469;-84
2023/09/03 12:36:10;;;;;;;3.80;3.47;;;25.00;94.40;;;;;;5029836;28;20454;-84
2023/09/03 12:38:56;;;;;;;3.43;3.13;;;25.00;94.50;;;;;;5029264;28;20172;-84
2023/09/03 12:41:24;;;;;;;3.77;3.47;;;25.00;94.60;;;;;;5045704;28;20183;-84
2023/09/03 12:43:50;;;;;;;3.23;2.93;;;25.00;94.70;;;;;;5029625;28;20737;-84
2023/09/03 12:46:16;;;;;;;5.20;3.70;;;25.00;94.70;;;;;;5031279;28;20274;-84
2023/09/03 12:48:44;;;;;;;3.50;3.20;;;25.00;94.70;;;;;;5032035;28;20175;-84
2023/09/03 12:51:12;;;;;;;4.07;3.23;;;25.00;94.80;;;;;;5030797;28;20172;-84
2023/09/03 12:53:47;;;;;;;3.50;3.20;;;25.00;94.80;;;;;;5030953;28;20218;-84
2023/09/03 12:56:14;;;;;;;3.80;3.50;;;25.00;94.90;;;;;;5047989;28;20572;-84